createdAt,value
2019-05-03T00:00:03.026Z,6.39
2019-05-03T00:01:03.660Z,6.39
2019-05-03T00:02:02.776Z,6.43
2019-05-03T00:03:03.773Z,6.87
2019-05-03T00:04:02.776Z,6.17
2019-05-03T00:05:03.797Z,6.16
2019-05-03T00:06:03.684Z,6.34
2019-05-03T00:07:03.760Z,6.8
2019-05-03T00:08:03.620Z,6.63
2019-05-03T00:09:03.618Z,6.79
2019-05-03T00:10:03.645Z,6.66
2019-05-03T00:11:02.922Z,6.38
2019-05-03T00:12:03.358Z,6.09
2019-05-03T00:13:04.147Z,6.86
2019-05-03T00:14:03.338Z,6.32
2019-05-03T00:15:03.181Z,7.04
2019-05-03T00:16:03.836Z,6.11
2019-05-03T00:17:03.340Z,6.55
2019-05-03T00:18:03.454Z,6.35
2019-05-03T00:19:03.479Z,5.76
2019-05-03T00:20:03.090Z,6.74
2019-05-03T00:21:03.310Z,6.74
2019-05-03T00:22:03.090Z,5.82
2019-05-03T00:23:03.130Z,6.64
2019-05-03T00:24:03.251Z,6.64
2019-05-03T00:25:08.491Z,6.18
2019-05-03T00:26:02.836Z,6.23
2019-05-03T00:27:02.858Z,6.23
2019-05-03T00:28:02.794Z,5.76
2019-05-03T00:29:02.676Z,5.96
2019-05-03T00:30:03.080Z,5.87
2019-05-03T00:31:02.884Z,6.29
2019-05-03T00:32:03.035Z,5.67
2019-05-03T00:33:03.096Z,5.52
2019-05-03T00:34:02.873Z,5.92
2019-05-03T00:35:03.781Z,6.09
2019-05-03T00:36:03.225Z,5.87
2019-05-03T00:37:03.211Z,5.73
2019-05-03T00:38:03.497Z,5.18
2019-05-03T00:39:03.302Z,6.01
2019-05-03T00:40:03.674Z,4.83
2019-05-03T00:41:03.596Z,4.72
2019-05-03T00:42:03.095Z,5.35
2019-05-03T00:43:03.207Z,5.13
2019-05-03T00:44:03.197Z,4.98
2019-05-03T00:45:03.354Z,4.73
2019-05-03T00:46:03.150Z,4.89
2019-05-03T00:47:02.938Z,4.29
2019-05-03T00:48:03.125Z,4.65
2019-05-03T00:49:03.924Z,4.52
2019-05-03T00:50:03.083Z,4.85
2019-05-03T00:51:02.925Z,4.6
2019-05-03T00:52:03.087Z,3.9
2019-05-03T00:53:02.636Z,4.66
2019-05-03T00:54:04.083Z,4.33
2019-05-03T00:55:18.568Z,4.48
2019-05-03T00:56:03.527Z,4.08
2019-05-03T00:57:03.599Z,3.92
2019-05-03T00:58:03.668Z,4.29
2019-05-03T00:59:02.734Z,4.24
2019-05-03T01:00:03.317Z,4.12
2019-05-03T01:01:03.551Z,4.31
2019-05-03T01:02:03.695Z,4.51
2019-05-03T01:03:03.447Z,4.68
2019-05-03T01:04:03.502Z,4.18
2019-05-03T01:05:03.612Z,3.88
2019-05-03T01:06:03.513Z,4.17
2019-05-03T01:07:03.192Z,3.88
2019-05-03T01:08:03.437Z,4.19
2019-05-03T01:09:03.138Z,5.01
2019-05-03T01:10:03.216Z,3.56
2019-05-03T01:11:03.156Z,3.83
2019-05-03T01:12:03.262Z,3.83
2019-05-03T01:13:02.958Z,4.39
2019-05-03T01:14:03.302Z,3.65
2019-05-03T01:15:03.197Z,3.65
2019-05-03T01:16:02.996Z,4.22
2019-05-03T01:17:03.170Z,3.91
2019-05-03T01:18:02.665Z,4.38
2019-05-03T01:19:03.229Z,4.74
2019-05-03T01:20:03.103Z,4.11
2019-05-03T01:21:02.908Z,3.89
2019-05-03T01:22:03.663Z,3.65
2019-05-03T01:23:03.142Z,4.61
2019-05-03T01:24:03.749Z,4.31
2019-05-03T01:25:03.201Z,3.92
2019-05-03T01:26:02.734Z,3.69
2019-05-03T01:27:02.687Z,3.57
2019-05-03T01:28:03.764Z,3.89
2019-05-03T01:29:03.554Z,3.41
2019-05-03T01:30:03.666Z,3.93
2019-05-03T01:31:03.339Z,3.54
2019-05-03T01:32:03.353Z,3.7
2019-05-03T01:33:03.257Z,3.57
2019-05-03T01:34:03.730Z,3.99
2019-05-03T01:35:03.524Z,3.37
2019-05-03T01:36:03.486Z,3.26
2019-05-03T01:37:03.207Z,2.94
2019-05-03T01:38:03.379Z,2.73
2019-05-03T01:39:03.165Z,3.52
2019-05-03T01:40:03.352Z,3.3
2019-05-03T01:41:03.237Z,3.68
2019-05-03T01:42:02.909Z,3.35
2019-05-03T01:43:03.266Z,3.19
2019-05-03T01:44:03.012Z,2.69
2019-05-03T01:45:02.994Z,2.48
2019-05-03T01:46:02.979Z,2.83
2019-05-03T01:47:03.010Z,2.67
2019-05-03T01:48:02.892Z,2.65
2019-05-03T01:49:02.897Z,2.73
2019-05-03T01:50:03.093Z,2.52
2019-05-03T01:51:02.967Z,2.79
2019-05-03T01:52:03.547Z,2.52
2019-05-03T01:53:03.057Z,2.6
2019-05-03T01:54:02.923Z,2.31
2019-05-03T01:55:03.913Z,2.63
2019-05-03T01:56:03.780Z,2.71
2019-05-03T01:57:03.722Z,2.18
2019-05-03T01:58:02.904Z,3
2019-05-03T01:59:03.417Z,2.62
2019-05-03T02:00:03.725Z,2.31
2019-05-03T02:01:03.581Z,2.34
2019-05-03T02:02:03.257Z,2.71
2019-05-03T02:03:03.633Z,2.71
2019-05-03T02:04:03.503Z,2.77
2019-05-03T02:05:03.740Z,2.77
2019-05-03T02:06:03.521Z,2.86
2019-05-03T02:07:03.588Z,2.85
2019-05-03T02:08:03.446Z,3.04
2019-05-03T02:09:03.349Z,3.02
2019-05-03T02:10:03.418Z,2.62
2019-05-03T02:11:03.450Z,3.12
2019-05-03T02:12:03.065Z,2.92
2019-05-03T02:13:03.038Z,3.48
2019-05-03T02:14:03.157Z,2.99
2019-05-03T02:15:03.081Z,3.18
2019-05-03T02:16:02.855Z,3.55
2019-05-03T02:17:03.207Z,3.56
2019-05-03T02:18:03.001Z,3.24
2019-05-03T02:19:02.980Z,3.48
2019-05-03T02:20:03.172Z,3.41
2019-05-03T02:21:02.851Z,3.86
2019-05-03T02:22:03.068Z,3.74
2019-05-03T02:23:03.865Z,4.02
2019-05-03T02:24:02.805Z,3.96
2019-05-03T02:25:02.514Z,4.26
2019-05-03T02:26:03.253Z,4.59
2019-05-03T02:27:03.882Z,3.85
2019-05-03T02:28:02.696Z,4.14
2019-05-03T02:29:03.139Z,4.22
2019-05-03T02:30:03.549Z,4.42
2019-05-03T02:31:03.924Z,4.78
2019-05-03T02:32:03.716Z,4.36
2019-05-03T02:33:04.451Z,4.04
2019-05-03T02:34:03.877Z,4.19
2019-05-03T02:35:03.896Z,3.81
2019-05-03T02:36:04.100Z,4
2019-05-03T02:37:03.503Z,4.38
2019-05-03T02:38:03.895Z,4.25
2019-05-03T02:39:03.447Z,4.82
2019-05-03T02:40:04.539Z,4.34
2019-05-03T02:41:03.326Z,4.32
2019-05-03T02:42:11.528Z,4.26
2019-05-03T02:43:05.721Z,3.59
2019-05-03T02:44:06.365Z,4.09
2019-05-03T02:45:06.148Z,4.27
2019-05-03T02:46:06.090Z,3.62
2019-05-03T02:47:05.746Z,4.43
2019-05-03T02:48:05.366Z,3.98
2019-05-03T02:49:06.624Z,3.98
2019-05-03T02:50:05.967Z,4.38
2019-05-03T02:51:02.915Z,4.52
2019-05-03T02:52:06.804Z,4.52
2019-05-03T02:53:05.923Z,4.21
2019-05-03T02:54:05.721Z,4.36
2019-05-03T02:55:02.876Z,4.36
2019-05-03T02:56:22.118Z,4.56
2019-05-03T02:57:02.784Z,4.44
2019-05-03T02:58:05.863Z,3.99
2019-05-03T02:59:06.417Z,4.39
2019-05-03T03:00:05.283Z,3.91
2019-05-03T03:01:06.761Z,4.75
2019-05-03T03:02:06.587Z,4.82
2019-05-03T03:03:05.682Z,4.74
2019-05-03T03:04:05.584Z,4.54
2019-05-03T03:05:05.991Z,5.25
2019-05-03T03:06:07.058Z,5.92
2019-05-03T03:07:05.947Z,4.76
2019-05-03T03:08:06.132Z,5.34
2019-05-03T03:09:05.603Z,4.41
2019-05-03T03:10:05.557Z,4.16
2019-05-03T03:11:06.537Z,4.96
2019-05-03T03:12:06.346Z,3.83
2019-05-03T03:13:06.101Z,4.42
2019-05-03T03:14:06.014Z,4.62
2019-05-03T03:15:06.405Z,4.65
2019-05-03T03:16:02.967Z,4.68
2019-05-03T03:17:06.811Z,4.74
2019-05-03T03:18:06.419Z,5.24
2019-05-03T03:19:07.052Z,4.61
2019-05-03T03:20:05.726Z,5.02
2019-05-03T03:21:05.965Z,4.86
2019-05-03T03:22:06.156Z,3.98
2019-05-03T03:23:02.758Z,5.08
2019-05-03T03:24:06.407Z,4.57
2019-05-03T03:25:05.579Z,5.05
2019-05-03T03:26:06.329Z,5.08
2019-05-03T03:27:05.540Z,4.94
2019-05-03T03:28:05.532Z,4.97
2019-05-03T03:29:06.163Z,4.6
2019-05-03T03:30:08.019Z,5.24
2019-05-03T03:31:08.818Z,5.18
2019-05-03T03:32:09.738Z,4.35
2019-05-03T03:33:09.133Z,5.08
2019-05-03T03:34:08.683Z,5.01
2019-05-03T03:35:12.612Z,5.28
2019-05-03T03:37:10.168Z,5.52
2019-05-03T03:38:05.839Z,6.63
2019-05-03T03:39:06.231Z,5.36
2019-05-03T03:40:06.296Z,5.36
2019-05-03T03:41:06.129Z,6.27
2019-05-03T03:42:05.452Z,5.94
2019-05-03T03:43:05.615Z,5.54
2019-05-03T03:44:02.889Z,5.54
2019-05-03T03:45:06.368Z,5.97
2019-05-03T03:46:05.524Z,6.04
2019-05-03T03:47:05.612Z,6.04
2019-05-03T03:48:05.347Z,6.29
2019-05-03T03:49:02.892Z,6.85
2019-05-03T03:50:06.090Z,6.77
2019-05-03T03:51:05.256Z,7.34
2019-05-03T03:52:06.332Z,7.18
2019-05-03T03:53:02.921Z,8.09
2019-05-03T03:54:06.192Z,7.01
2019-05-03T03:55:06.652Z,7.99
2019-05-03T03:56:05.877Z,7.99
2019-05-03T03:57:08.374Z,8.21
2019-05-03T03:58:06.711Z,8.73
2019-05-03T03:59:05.978Z,9.67
2019-05-03T04:00:05.589Z,9.14
2019-05-03T04:01:06.294Z,9.92
2019-05-03T04:02:06.206Z,9.41
2019-05-03T04:03:06.093Z,9.92
2019-05-03T04:04:05.739Z,10.81
2019-05-03T04:05:05.756Z,10.72
2019-05-03T04:06:05.965Z,10.94
2019-05-03T04:07:06.796Z,11.21
2019-05-03T04:08:05.897Z,11.55
2019-05-03T04:09:05.307Z,12.16
2019-05-03T04:10:05.863Z,12.18
2019-05-03T04:11:06.491Z,10.48
2019-05-03T04:12:06.278Z,12.11
2019-05-03T04:13:05.566Z,14.04
2019-05-03T04:14:05.560Z,14.18
2019-05-03T04:15:05.943Z,12.1
2019-05-03T04:16:05.707Z,12.3
2019-05-03T04:17:06.102Z,12.44
2019-05-03T04:18:05.824Z,13.64
2019-05-03T04:19:05.971Z,13.6
2019-05-03T04:20:05.175Z,13.46
2019-05-03T04:21:05.701Z,14.71
2019-05-03T04:22:06.115Z,15.2
2019-05-03T04:23:05.470Z,14.79
2019-05-03T04:24:02.836Z,16.5
2019-05-03T04:25:06.072Z,16.1
2019-05-03T04:26:03.079Z,15.73
2019-05-03T04:27:22.153Z,16.21
2019-05-03T04:28:06.038Z,18.28
2019-05-03T04:29:05.662Z,16.42
2019-05-03T04:30:06.016Z,18.61
2019-05-03T04:31:06.445Z,18.66
2019-05-03T04:32:06.212Z,18.66
2019-05-03T04:33:06.267Z,19.77
2019-05-03T04:34:05.270Z,18.65
2019-05-03T04:35:05.558Z,18.65
2019-05-03T04:36:05.701Z,17.24
2019-05-03T04:37:05.660Z,19.28
2019-05-03T04:38:05.814Z,19.28
2019-05-03T04:39:05.519Z,20.07
2019-05-03T04:40:06.517Z,19.61
2019-05-03T04:41:06.227Z,22.05
2019-05-03T04:42:07.042Z,20.85
2019-05-03T04:43:06.407Z,21.9
2019-05-03T04:44:06.603Z,23
2019-05-03T04:45:06.083Z,23.59
2019-05-03T04:46:06.918Z,21.66
2019-05-03T04:47:07.218Z,22.44
2019-05-03T04:48:06.265Z,22.95
2019-05-03T04:49:05.899Z,24.39
2019-05-03T04:50:05.919Z,24.59
2019-05-03T04:51:06.176Z,22.26
2019-05-03T04:52:06.161Z,26.52
2019-05-03T04:53:05.864Z,24.67
2019-05-03T04:54:05.496Z,25.41
2019-05-03T04:55:06.827Z,26.72
2019-05-03T04:56:06.017Z,27.04
2019-05-03T04:57:06.758Z,26.81
2019-05-03T04:58:04.969Z,26.99
2019-05-03T04:59:05.366Z,25.64
2019-05-03T05:00:08.631Z,28.75
2019-05-03T05:01:02.672Z,27.16
2019-05-03T05:02:02.720Z,28.06
2019-05-03T05:03:06.108Z,24.93
2019-05-03T05:04:05.519Z,27.15
2019-05-03T05:05:02.944Z,27.72
2019-05-03T05:06:02.807Z,28.74
2019-05-03T05:07:02.923Z,28.43
2019-05-03T05:08:02.880Z,26.26
2019-05-03T05:09:05.165Z,28.24
2019-05-03T05:10:05.418Z,26.85
2019-05-03T05:11:09.669Z,29.85
2019-05-03T05:12:05.950Z,26.34
2019-05-03T05:13:05.654Z,30.15
2019-05-03T05:14:02.939Z,27.68
2019-05-03T05:15:05.370Z,26.24
2019-05-03T05:16:05.167Z,27.56
2019-05-03T05:17:06.381Z,27.48
2019-05-03T05:18:06.200Z,28.38
2019-05-03T05:19:05.914Z,28.36
2019-05-03T05:20:05.424Z,29.09
2019-05-03T05:21:04.686Z,29.09
2019-05-03T05:22:06.087Z,29.89
2019-05-03T05:23:04.705Z,29.89
2019-05-03T05:24:05.765Z,29.42
2019-05-03T05:25:04.634Z,27.15
2019-05-03T05:26:03.157Z,27.15
2019-05-03T05:27:05.400Z,26.71
2019-05-03T05:28:04.850Z,28.34
2019-05-03T05:29:05.396Z,28.25
2019-05-03T05:30:04.687Z,29.19
2019-05-03T05:31:04.861Z,28.18
2019-05-03T05:32:05.396Z,29.08
2019-05-03T05:33:05.502Z,29.57
2019-05-03T05:34:04.996Z,29.37
2019-05-03T05:35:05.272Z,27.57
2019-05-03T05:36:04.967Z,28.68
2019-05-03T05:37:02.961Z,26.21
2019-05-03T05:38:04.783Z,28.58
2019-05-03T05:39:05.316Z,26.65
2019-05-03T05:40:05.357Z,27.15
2019-05-03T05:41:02.813Z,27.39
2019-05-03T05:42:04.662Z,28.06
2019-05-03T05:43:05.082Z,27.62
2019-05-03T05:44:05.542Z,27.52
2019-05-03T05:45:05.062Z,28.1
2019-05-03T05:46:05.470Z,27.48
2019-05-03T05:47:04.829Z,26.1
2019-05-03T05:48:05.335Z,28.54
2019-05-03T05:49:04.410Z,25.35
2019-05-03T05:50:05.103Z,27.69
2019-05-03T05:51:04.554Z,28.13
2019-05-03T05:52:05.075Z,27.01
2019-05-03T05:54:05.339Z,26.51
2019-05-03T05:54:05.353Z,26.12
2019-05-03T05:55:04.727Z,27.54
2019-05-03T05:56:05.122Z,29.01
2019-05-03T05:57:06.934Z,28.06
2019-05-03T05:58:08.270Z,26.21
2019-05-03T05:59:04.563Z,25.28
2019-05-03T06:00:05.013Z,27.93
2019-05-03T06:01:02.965Z,26.65
2019-05-03T06:02:05.005Z,28.71
2019-05-03T06:03:02.789Z,27.56
2019-05-03T06:04:02.884Z,27.95
2019-05-03T06:05:04.905Z,27.22
2019-05-03T06:06:02.785Z,26.39
2019-05-03T06:07:04.685Z,27.12
2019-05-03T06:08:04.925Z,27.84
2019-05-03T06:09:05.217Z,27.84
2019-05-03T06:10:05.392Z,26.99
2019-05-03T06:11:04.614Z,26.99
2019-05-03T06:12:04.638Z,24.51
2019-05-03T06:13:05.024Z,26.31
2019-05-03T06:14:05.143Z,24.68
2019-05-03T06:15:04.814Z,28.46
2019-05-03T06:16:05.242Z,25.46
2019-05-03T06:17:05.541Z,28.66
2019-05-03T06:18:05.851Z,25.72
2019-05-03T06:19:04.733Z,27.34
2019-05-03T06:20:04.991Z,26.83
2019-05-03T06:21:04.761Z,25.49
2019-05-03T06:22:05.183Z,25.72
2019-05-03T06:23:05.365Z,27.25
2019-05-03T06:24:04.572Z,26.39
2019-05-03T06:25:06.779Z,25.44
2019-05-03T06:26:05.102Z,28.15
2019-05-03T06:27:05.145Z,26.85
2019-05-03T06:28:20.548Z,26.85
2019-05-03T06:29:04.772Z,26.26
2019-05-03T06:30:04.793Z,26.1
2019-05-03T06:31:04.863Z,27.92
2019-05-03T06:32:04.948Z,24.56
2019-05-03T06:33:05.422Z,27.31
2019-05-03T06:34:04.630Z,29.2
2019-05-03T06:35:05.075Z,25.35
2019-05-03T06:36:05.011Z,24.11
2019-05-03T06:37:04.614Z,27.82
2019-05-03T06:38:05.015Z,25.86
2019-05-03T06:39:08.156Z,26.39
2019-05-03T06:40:06.271Z,27.3
2019-05-03T06:41:04.863Z,25.34
2019-05-03T06:42:05.302Z,25
2019-05-03T06:43:12.849Z,26.71
2019-05-03T06:44:04.458Z,26.89
2019-05-03T06:45:11.621Z,26.64
2019-05-03T06:46:02.841Z,26.71
2019-05-03T06:47:10.310Z,25.96
2019-05-03T06:48:05.609Z,27.22
2019-05-03T06:49:10.031Z,25.94
2019-05-03T06:50:02.919Z,29.32
2019-05-03T06:51:10.392Z,26.42
2019-05-03T06:52:06.035Z,29.11
2019-05-03T06:53:10.396Z,26.94
2019-05-03T06:54:05.174Z,29.45
2019-05-03T06:55:10.658Z,27.93
2019-05-03T06:56:04.727Z,28.14
2019-05-03T06:57:51.876Z,28.14
2019-05-03T06:59:05.319Z,28.25
2019-05-03T07:00:05.391Z,28.25
2019-05-03T07:01:04.756Z,28.81
2019-05-03T07:02:03.111Z,26.86
2019-05-03T07:03:05.049Z,28.51
2019-05-03T07:04:05.238Z,28.96
2019-05-03T07:05:05.202Z,27.83
2019-05-03T07:06:04.624Z,30.09
2019-05-03T07:07:05.325Z,27.89
2019-05-03T07:08:05.287Z,30.65
2019-05-03T07:09:05.431Z,28.52
2019-05-03T07:10:05.174Z,28.38
2019-05-03T07:11:05.335Z,27.1
2019-05-03T07:12:04.643Z,27.84
2019-05-03T07:13:05.157Z,28.73
2019-05-03T07:14:05.420Z,28.38
2019-05-03T07:15:05.316Z,26.34
2019-05-03T07:16:04.825Z,28.9
2019-05-03T07:17:05.686Z,27.7
2019-05-03T07:18:02.924Z,28.52
2019-05-03T07:19:04.597Z,29.72
2019-05-03T07:20:04.793Z,29.92
2019-05-03T07:21:05.019Z,26.94
2019-05-03T07:22:05.201Z,28.6
2019-05-03T07:23:04.476Z,27.49
2019-05-03T07:24:05.524Z,30.65
2019-05-03T07:25:04.780Z,26.35
2019-05-03T07:26:05.522Z,28.81
2019-05-03T07:27:05.566Z,29.39
2019-05-03T07:28:04.515Z,28.7
2019-05-03T07:29:05.129Z,29.12
2019-05-03T07:30:04.951Z,27.86
2019-05-03T07:31:04.946Z,27.5
2019-05-03T07:32:05.350Z,28.01
2019-05-03T07:33:04.971Z,27.84
2019-05-03T07:34:05.341Z,27.01
2019-05-03T07:35:04.622Z,26.21
2019-05-03T07:36:05.530Z,25.02
2019-05-03T07:37:06.061Z,29.91
2019-05-03T07:38:05.525Z,28.41
2019-05-03T07:39:05.468Z,28.11
2019-05-03T07:40:04.845Z,25.52
2019-05-03T07:41:05.430Z,26.75
2019-05-03T07:42:05.577Z,26.38
2019-05-03T07:43:04.638Z,26.95
2019-05-03T07:44:05.447Z,25.82
2019-05-03T07:45:05.093Z,25.82
2019-05-03T07:46:02.766Z,27.64
2019-05-03T07:47:05.020Z,28.56
2019-05-03T07:48:04.775Z,28.56
2019-05-03T07:49:05.221Z,25.16
2019-05-03T07:50:05.109Z,26.64
2019-05-03T07:51:05.706Z,26.64
2019-05-03T07:52:06.038Z,25.71
2019-05-03T07:53:04.792Z,23.12
2019-05-03T07:54:04.867Z,25.45
2019-05-03T07:55:04.724Z,25.84
2019-05-03T07:56:05.363Z,25.44
2019-05-03T07:57:05.285Z,24.85
2019-05-03T07:58:04.728Z,25.02
2019-05-03T07:59:06.500Z,23.66
2019-05-03T08:00:05.145Z,25.27
2019-05-03T08:01:09.884Z,26.29
2019-05-03T08:02:05.799Z,25.46
2019-05-03T08:03:05.142Z,26.09
2019-05-03T08:04:05.615Z,24.56
2019-05-03T08:05:05.351Z,26.48
2019-05-03T08:06:04.971Z,24.29
2019-05-03T08:07:04.638Z,24.22
2019-05-03T08:08:04.914Z,23.52
2019-05-03T08:09:04.997Z,22.17
2019-05-03T08:10:05.573Z,24.09
2019-05-03T08:11:05.408Z,24.06
2019-05-03T08:12:05.280Z,23.02
2019-05-03T08:13:04.835Z,24.65
2019-05-03T08:14:05.092Z,24.51
2019-05-03T08:15:04.932Z,23.82
2019-05-03T08:16:02.767Z,23.81
2019-05-03T08:17:05.291Z,22.85
2019-05-03T08:18:05.001Z,23.97
2019-05-03T08:19:05.135Z,21.94
2019-05-03T08:20:05.355Z,23.12
2019-05-03T08:21:05.924Z,23.79
2019-05-03T08:22:05.145Z,22.59
2019-05-03T08:23:05.464Z,23.97
2019-05-03T08:24:04.745Z,23.02
2019-05-03T08:25:05.525Z,25.11
2019-05-03T08:26:06.126Z,24.3
2019-05-03T08:27:05.290Z,22.88
2019-05-03T08:28:05.394Z,22.62
2019-05-03T08:29:19.116Z,26.01
2019-05-03T08:30:04.749Z,23.56
2019-05-03T08:31:04.891Z,21.78
2019-05-03T08:32:05.169Z,23.68
2019-05-03T08:33:05.610Z,23.68
2019-05-03T08:34:05.007Z,24.06
2019-05-03T08:35:04.907Z,24.11
2019-05-03T08:36:04.978Z,22.82
2019-05-03T08:37:05.353Z,21.94
2019-05-03T08:38:05.059Z,23.06
2019-05-03T08:39:05.566Z,24.14
2019-05-03T08:40:02.862Z,24.14
2019-05-03T08:41:04.866Z,23.51
2019-05-03T08:42:04.947Z,24.88
2019-05-03T08:43:05.280Z,24.88
2019-05-03T08:44:02.580Z,23.32
2019-05-03T08:45:07.747Z,22.16
2019-05-03T08:46:04.769Z,24.45
2019-05-03T08:47:05.358Z,24.11
2019-05-03T08:48:05.690Z,22.06
2019-05-03T08:49:05.366Z,15.99
2019-05-03T08:50:05.683Z,13.54
2019-05-03T08:51:04.772Z,12.26
2019-05-03T08:52:05.647Z,10.76
2019-05-03T08:53:05.316Z,13.34
2019-05-03T08:54:04.831Z,12.47
2019-05-03T08:55:05.348Z,12.5
2019-05-03T08:56:05.457Z,12.62
2019-05-03T08:57:05.515Z,14.05
2019-05-03T08:58:05.398Z,15.42
2019-05-03T08:59:04.850Z,15.44
2019-05-03T09:00:05.344Z,17.83
2019-05-03T09:01:05.727Z,18.23
2019-05-03T09:02:16.628Z,17.49
2019-05-03T09:03:05.380Z,18.22
2019-05-03T09:04:05.155Z,20.86
2019-05-03T09:05:05.188Z,18.48
2019-05-03T09:06:04.831Z,22.29
2019-05-03T09:07:02.658Z,21.08
2019-05-03T09:08:05.861Z,22.02
2019-05-03T09:09:04.829Z,21.34
2019-05-03T09:10:05.574Z,20.48
2019-05-03T09:11:05.156Z,22.52
2019-05-03T09:12:04.853Z,22.22
2019-05-03T09:13:06.695Z,20.85
2019-05-03T09:14:04.707Z,22.36
2019-05-03T09:15:04.831Z,20.46
2019-05-03T09:16:05.654Z,21.28
2019-05-03T09:17:05.079Z,23.13
2019-05-03T09:18:04.989Z,22.04
2019-05-03T09:19:05.820Z,21.65
2019-05-03T09:20:05.287Z,21.73
2019-05-03T09:21:05.323Z,22.32
2019-05-03T09:22:06.319Z,24.35
2019-05-03T09:23:05.572Z,24.89
2019-05-03T09:24:04.837Z,24
2019-05-03T09:25:05.091Z,22.09
2019-05-03T09:26:04.869Z,21.95
2019-05-03T09:27:05.474Z,25.04
2019-05-03T09:28:04.942Z,25.04
2019-05-03T09:29:05.685Z,21.75
2019-05-03T09:30:05.147Z,24.48
2019-05-03T09:31:04.762Z,24.48
2019-05-03T09:32:05.346Z,23.61
2019-05-03T09:34:08.250Z,24.39
2019-05-03T09:34:35.264Z,24.39
2019-05-03T09:35:02.967Z,23.61
2019-05-03T09:36:05.479Z,23.59
2019-05-03T09:37:04.966Z,22.61
2019-05-03T09:38:02.913Z,20.88
2019-05-03T09:39:05.150Z,21.49
2019-05-03T09:40:04.582Z,23.61
2019-05-03T09:41:05.332Z,24.05
2019-05-03T09:42:04.894Z,23.11
2019-05-03T09:43:04.743Z,22.62
2019-05-03T09:44:04.861Z,23.65
2019-05-03T09:45:05.056Z,23.76
2019-05-03T09:46:05.279Z,22.24
2019-05-03T09:47:05.813Z,24.16
2019-05-03T09:48:02.663Z,22.06
2019-05-03T09:49:14.273Z,22.81
2019-05-03T09:50:04.895Z,23.52
2019-05-03T09:51:05.274Z,22.99
2019-05-03T09:52:08.548Z,22.9
2019-05-03T09:53:05.723Z,21.4
2019-05-03T09:54:05.428Z,23.63
2019-05-03T09:55:05.338Z,22.68
2019-05-03T09:56:05.169Z,21.26
2019-05-03T09:57:02.843Z,21.36
2019-05-03T09:58:05.715Z,22.53
2019-05-03T09:59:05.487Z,20.95
2019-05-03T10:00:05.097Z,22.14
2019-05-03T10:01:08.464Z,21.19
2019-05-03T10:02:05.120Z,21.05
2019-05-03T10:03:02.787Z,22.15
2019-05-03T10:04:02.916Z,22.25
2019-05-03T10:05:03.203Z,22.85
2019-05-03T10:06:02.975Z,23.29
2019-05-03T10:07:02.835Z,22.1
2019-05-03T10:08:05.414Z,21.16
2019-05-03T10:09:05.455Z,21.6
2019-05-03T10:10:05.825Z,22.21
2019-05-03T10:11:05.755Z,20.15
2019-05-03T10:12:05.646Z,19.93
2019-05-03T10:13:21.391Z,21.19
2019-05-03T10:14:04.810Z,21.5
2019-05-03T10:15:06.632Z,22.23
2019-05-03T10:16:06.271Z,23.52
2019-05-03T10:17:05.552Z,23.52
2019-05-03T10:18:11.158Z,23.36
2019-05-03T10:19:03.138Z,22.49
2019-05-03T10:20:03.556Z,21.88
2019-05-03T10:21:05.533Z,20.93
2019-05-03T10:22:05.904Z,21.78
2019-05-03T10:23:06.294Z,20.87
2019-05-03T10:24:03.171Z,19.16
2019-05-03T10:25:05.071Z,19.5
2019-05-03T10:26:05.289Z,21.11
2019-05-03T10:27:02.901Z,21.62
2019-05-03T10:28:02.956Z,22.13
2019-05-03T10:29:05.586Z,20.13
2019-05-03T10:30:13.301Z,20.96
2019-05-03T10:31:07.866Z,19.05
2019-05-03T10:32:03.063Z,18.89
2019-05-03T10:33:03.067Z,19.26
2019-05-03T10:34:02.847Z,19.05
2019-05-03T10:35:05.835Z,18.32
2019-05-03T10:36:05.686Z,18.97
2019-05-03T10:37:05.303Z,19.66
2019-05-03T10:38:05.967Z,19.6
2019-05-03T10:39:04.936Z,19.52
2019-05-03T10:40:08.085Z,19.02
2019-05-03T10:41:02.832Z,18.55
2019-05-03T10:42:04.928Z,21.01
2019-05-03T10:43:04.967Z,18.39
2019-05-03T10:44:06.167Z,19.12
2019-05-03T10:45:04.821Z,19.12
2019-05-03T10:46:05.310Z,18.42
2019-05-03T10:47:05.713Z,19.21
2019-05-03T10:48:05.012Z,19.52
2019-05-03T10:49:05.885Z,18.95
2019-05-03T10:50:04.835Z,19.32
2019-05-03T10:51:04.913Z,19.99
2019-05-03T10:52:05.798Z,19.13
2019-05-03T10:53:05.382Z,20.07
2019-05-03T10:54:05.345Z,19.05
2019-05-03T10:55:05.465Z,19.77
2019-05-03T10:56:05.201Z,20.66
2019-05-03T10:57:05.452Z,20.05
2019-05-03T10:58:05.390Z,21.14
2019-05-03T10:59:03.048Z,18.86
2019-05-03T11:00:05.153Z,19.89
2019-05-03T11:01:05.228Z,20.5
2019-05-03T11:02:03.275Z,19.87
2019-05-03T11:03:05.403Z,18.4
2019-05-03T11:04:05.434Z,20.31
2019-05-03T11:05:05.298Z,20.31
2019-05-03T11:06:03.086Z,18.58
2019-05-03T11:07:05.671Z,18.55
2019-05-03T11:08:05.122Z,18.55
2019-05-03T11:09:05.871Z,19.97
2019-05-03T11:10:05.368Z,20.12
2019-05-03T11:11:02.867Z,20.12
2019-05-03T11:12:05.486Z,18.08
2019-05-03T11:13:02.977Z,20.74
2019-05-03T11:14:05.713Z,21.11
2019-05-03T11:15:02.751Z,18.92
2019-05-03T11:16:05.678Z,17.99
2019-05-03T11:17:02.873Z,20.19
2019-05-03T11:18:02.843Z,20.43
2019-05-03T11:19:02.858Z,19.81
2019-05-03T11:20:05.395Z,18.63
2019-05-03T11:21:05.280Z,20.12
2019-05-03T11:22:05.685Z,20.79
2019-05-03T11:23:06.152Z,19.64
2019-05-03T11:24:03.640Z,17.87
2019-05-03T11:25:05.226Z,18.58
2019-05-03T11:26:03.604Z,18.15
2019-05-03T11:27:03.698Z,19.31
2019-05-03T11:28:04.996Z,18.91
2019-05-03T11:29:05.388Z,17.91
2019-05-03T11:30:05.039Z,17.12
2019-05-03T11:31:05.113Z,18.86
2019-05-03T11:32:10.469Z,18.61
2019-05-03T11:33:03.227Z,19.67
2019-05-03T11:34:03.380Z,18.05
2019-05-03T11:35:04.683Z,17.02
2019-05-03T11:36:04.505Z,19.66
2019-05-03T11:37:05.022Z,16.99
2019-05-03T11:38:05.608Z,17.84
2019-05-03T11:39:05.023Z,17.32
2019-05-03T11:40:05.218Z,15.84
2019-05-03T11:41:05.030Z,16.68
2019-05-03T11:42:04.790Z,16.03
2019-05-03T11:43:04.806Z,16.74
2019-05-03T11:44:03.064Z,15.09
2019-05-03T11:45:03.258Z,16.19
2019-05-03T11:46:02.864Z,15.75
2019-05-03T11:47:02.988Z,16.03
2019-05-03T11:48:03.140Z,16.41
2019-05-03T11:49:03.006Z,16.47
2019-05-03T11:50:02.786Z,17.75
2019-05-03T11:51:02.653Z,17.46
2019-05-03T11:52:02.982Z,16.89
2019-05-03T11:53:05.326Z,16.89
2019-05-03T11:54:05.997Z,16.92
2019-05-03T11:55:12.086Z,17.36
2019-05-03T11:56:02.685Z,17.36
2019-05-03T11:57:05.167Z,16
2019-05-03T11:58:02.977Z,17.04
2019-05-03T11:59:05.391Z,16.66
2019-05-03T12:00:05.469Z,16.75
2019-05-03T12:01:18.980Z,16.42
2019-05-03T12:02:04.887Z,15.75
2019-05-03T12:03:05.097Z,16.52
2019-05-03T12:04:05.136Z,15.88
2019-05-03T12:05:05.115Z,15.3
2019-05-03T12:06:05.083Z,14.51
2019-05-03T12:07:06.062Z,16.64
2019-05-03T12:08:02.857Z,16.84
2019-05-03T12:09:05.758Z,15.79
2019-05-03T12:10:28.801Z,16.98
2019-05-03T12:11:03.206Z,16.49
2019-05-03T12:12:05.000Z,16.61
2019-05-03T12:13:05.288Z,16.86
2019-05-03T12:14:06.984Z,16.67
2019-05-03T12:15:04.418Z,16.79
2019-05-03T12:16:19.107Z,17.03
2019-05-03T12:17:24.317Z,16.19
2019-05-03T12:18:06.459Z,15.08
2019-05-03T12:19:20.147Z,16.2
2019-05-03T12:20:07.737Z,16.27
2019-05-03T12:21:08.200Z,16.87
2019-05-03T12:22:06.681Z,15.64
2019-05-03T12:23:06.624Z,14.18
2019-05-03T12:24:06.457Z,15.01
2019-05-03T12:25:10.825Z,15.18
2019-05-03T12:26:12.870Z,14.84
2019-05-03T12:27:04.842Z,15.04
2019-05-03T12:28:06.060Z,15.96
2019-05-03T12:29:04.729Z,15.14
2019-05-03T12:30:05.126Z,13.99
2019-05-03T12:31:05.153Z,14.24
2019-05-03T12:32:05.369Z,14.75
2019-05-03T12:33:06.262Z,15.48
2019-05-03T12:34:06.134Z,14.85
2019-05-03T12:35:06.253Z,14.68
2019-05-03T12:36:05.650Z,14.21
2019-05-03T12:37:05.395Z,13.28
2019-05-03T12:38:05.768Z,14.44
2019-05-03T12:39:05.726Z,15.03
2019-05-03T12:40:05.661Z,13.71
2019-05-03T12:41:05.807Z,13.71
2019-05-03T12:42:05.317Z,14.66
2019-05-03T12:43:02.697Z,15.48
2019-05-03T12:44:04.760Z,15.48
2019-05-03T12:45:04.708Z,13.78
2019-05-03T12:46:05.320Z,13.49
2019-05-03T12:47:06.172Z,14.03
2019-05-03T12:48:05.157Z,14.03
2019-05-03T12:49:05.393Z,13.18
2019-05-03T12:50:05.550Z,12.94
2019-05-03T12:51:06.980Z,12.94
2019-05-03T12:52:05.481Z,14.76
2019-05-03T12:53:05.118Z,14.96
2019-05-03T12:54:04.997Z,14.18
2019-05-03T12:55:04.661Z,15
2019-05-03T12:56:12.830Z,15.35
2019-05-03T12:57:05.302Z,14.53
2019-05-03T12:58:06.043Z,15.56
2019-05-03T12:59:05.994Z,14.75
2019-05-03T13:00:05.166Z,15.35
2019-05-03T13:01:05.103Z,15.02
2019-05-03T13:02:35.899Z,13.37
2019-05-03T13:03:04.672Z,14.76
2019-05-03T13:04:03.224Z,14.64